Latest Weather Observations for Kowanyama

IDQ60801

Issued at 5:02 pm EST Saturday 23 May 2015 (issued every 30 minutes, with the page automatically refreshed every 10 minutes)

About weather observations | Map of weather stations | Latest weather observations for QLD | Other Formats
Station Details ID: 029038 Name: KOWANYAMA AIRPORT Lat: -15.48 Lon: 141.75 Height: 9.6 m
Data from the previous 72 hours. | See also: Recent months at Kowanyama
Date/Time
EST
Temp
°C
App
Temp
°C
Dew
Point
Rel
Hum
%
Delta-T
°C
Wind Press
QNH
hPa
Press
MSL
hPa
Rain
since 9 am
mm
Dir
 
Spd
km/h
Gust
km/h
Spd
kts
Gust
kts
23/05:00pm 29.1 27.5 16.0 45 8.1 W 19 24 10 13 1013.2 1013.1 0.0
23/04:30pm 30.3 28.8 15.2 40 9.3 W 17 24 9 13 1013.0 1012.9 0.0
23/04:00pm 31.0 28.9 13.7 34 10.4 W 17 26 9 14 1012.9 1012.8 0.0
23/03:30pm 32.4 32.0 13.1 31 11.6 W 7 11 4 6 1012.8 1012.7 0.0
23/03:00pm 31.9 31.2 13.2 32 11.2 SW 9 13 5 7 1013.0 1012.9 0.0
23/02:30pm 31.3 31.0 12.6 31 11.1 SSW 6 13 3 7 1013.2 1013.1 0.0
23/02:00pm 31.1 30.2 12.5 32 11.0 SSE 9 15 5 8 1013.5 1013.4 0.0
23/01:30pm 31.5 30.9 12.3 31 11.3 NW 7 13 4 7 1013.8 1013.7 0.0
23/01:00pm 30.7 30.4 12.6 33 10.7 WSW 6 11 3 6 1014.2 1014.1 0.0
23/12:30pm 30.2 29.9 12.6 34 10.4 NNE 6 22 3 12 1014.7 1014.6 0.0
23/12:00pm 29.2 28.2 12.2 35 9.9 SSE 9 15 5 8 1015.1 1015.0 0.0
23/11:30am 29.1 28.2 10.7 32 10.5 NE 6 15 3 8 1015.7 1015.6 0.0
23/11:00am 27.8 26.9 10.5 34 9.7 E 6 15 3 8 1016.1 1016.0 0.0
23/10:00am 26.5 24.1 7.0 29 10.3 SSE 9 15 5 8 1016.6 1016.5 0.0
23/09:30am 25.1 22.1 5.8 29 9.9 S 11 17 6 9 1016.8 1016.7 0.0
23/08:30am 22.9 20.3 6.2 34 8.5 SSE 9 13 5 7 1016.6 1016.5 0.0
23/08:00am 21.7 19.2 6.4 37 7.7 S 9 11 5 6 1016.4 1016.3 0.0
23/07:30am 20.3 18.3 7.3 43 6.6 S 7 9 4 5 1016.3 1016.2 0.0
23/07:00am 19.7 17.8 7.4 45 6.3 SSE 7 9 4 5 1016.2 1016.1 0.0
23/06:30am 20.1 17.9 7.8 45 6.3 S 9 13 5 7 1015.9 1015.8 0.0
23/06:00am 20.5 18.3 7.8 44 6.6 SSE 9 13 5 7 1015.7 1015.6 0.0
23/05:30am 20.5 18.5 8.5 46 6.3 SSE 9 13 5 7 1015.5 1015.4 0.0
23/05:00am 21.0 18.9 8.3 44 6.6 SSE 9 11 5 6 1015.4 1015.3 0.0
23/04:30am 22.0 19.5 8.2 41 7.2 SSE 11 17 6 9 1015.3 1015.2 0.0
23/04:00am 22.2 19.4 8.7 42 7.2 S 13 17 7 9 1015.4 1015.3 0.0
23/03:30am 22.2 19.4 8.7 42 7.2 S 13 17 7 9 1015.4 1015.3 0.0
23/03:00am 22.5 20.6 9.0 42 7.2 SE 9 13 5 7 1015.9 1015.8 0.0
23/02:30am 23.3 21.1 9.3 41 7.6 SSE 11 13 6 7 1016.0 1015.9 0.0
23/02:00am 23.2 21.3 9.2 41 7.5 ESE 9 13 5 7 1015.9 1015.8 0.0
23/01:30am 23.8 21.6 9.4 40 7.8 SE 11 15 6 8 1015.9 1015.8 0.0
23/01:00am 24.1 20.7 9.3 39 8.0 SSE 17 24 9 13 1015.6 1015.5 0.0
23/12:30am 24.1 21.6 9.7 40 7.9 S 13 19 7 10 1015.6 1015.5 0.0
23/12:00am 24.6 22.2 10.1 40 8.0 S 13 20 7 11 1015.6 1015.5 0.0
 
Date/Time
EST
Temp
°C
App
Temp
°C
Dew
Point
Rel
Hum
%
Delta-T
°C
Wind Press
QNH
hPa
Press
MSL
hPa
Rain
since 9 am
mm
Dir
 
Spd
km/h
Gust
km/h
Spd
kts
Gust
kts
22/11:30pm 25.1 21.8 10.9 41 8.0 S 19 22 10 12 1015.7 1015.6 0.0
22/11:00pm 24.9 23.1 12.2 45 7.3 S 13 20 7 11 1015.7 1015.6 0.0
22/10:30pm 24.8 23.6 14.0 51 6.4 S 13 17 7 9 1015.7 1015.6 0.0
22/10:00pm 25.2 24.3 14.9 52 6.2 S 13 17 7 9 1015.7 1015.6 0.0
22/09:30pm 24.1 24.9 17.4 66 4.2 SSW 9 13 5 7 1015.6 1015.5 0.0
22/09:00pm 24.1 25.1 17.8 68 3.9 SSW 9 13 5 7 1015.5 1015.4 0.0
22/08:30pm 24.7 25.9 18.2 67 4.1 SSW 9 13 5 7 1015.2 1015.1 0.0
22/08:00pm 25.0 26.2 18.2 66 4.3 SW 9 13 5 7 1014.9 1014.8 0.0
22/07:30pm 25.5 26.6 17.9 63 4.8 SW 9 13 5 7 1014.6 1014.5 0.0
22/07:00pm 26.1 26.2 17.5 59 5.4 SW 13 17 7 9 1014.3 1014.2 0.0
22/06:30pm 27.0 27.1 17.5 56 6.0 SW 13 17 7 9 1014.0 1013.9 0.0
22/06:00pm 28.4 27.8 16.7 49 7.3 WSW 15 19 8 10 1013.7 1013.6 0.0
22/05:30pm 31.4 30.2 14.1 35 10.5 SSE 13 17 7 9 1013.3 1013.2 0.0
22/05:00pm 32.2 30.6 13.9 33 11.1 SSE 15 19 8 10 1013.0 1012.9 0.0
22/04:30pm 32.6 31.1 14.2 32 11.2 SSE 15 20 8 11 1013.0 1012.9 0.0
22/04:00pm 32.6 31.6 14.7 34 11.0 S 13 20 7 11 1013.0 1012.9 0.0
22/03:30pm 32.7 31.2 15.2 34 10.8 S 17 28 9 15 1013.0 1012.9 0.0
22/03:00pm 32.9 31.6 15.8 35 10.7 S 17 22 9 12 1013.2 1013.1 0.0
22/02:30pm 32.7 31.9 16.1 37 10.4 SE 15 20 8 11 1013.3 1013.2 0.0
22/02:00pm 32.5 31.6 16.8 39 9.9 SE 17 24 9 13 1013.6 1013.5 0.0
22/01:30pm 32.0 32.1 17.5 42 9.3 SSE 13 20 7 11 1014.0 1013.9 0.0
22/01:00pm 31.3 32.0 17.9 44 8.6 SE 11 26 6 14 1014.5 1014.4 0.0
22/12:30pm 30.6 32.0 18.7 49 7.7 SSE 9 19 5 10 1014.9 1014.8 0.0
22/12:00pm 30.2 31.2 18.6 49 7.5 SE 11 17 6 9 1015.3 1015.2 0.0
22/11:30am 29.4 30.1 18.8 53 6.8 SE 13 20 7 11 1015.9 1015.8 0.0
22/11:00am 29.2 31.0 19.5 56 6.3 ESE 9 15 5 8 1016.3 1016.2 0.0
22/10:30am 28.1 29.3 19.1 58 5.8 ESE 11 15 6 8 1016.8 1016.7 0.0
22/10:00am 27.2 27.9 18.8 60 5.4 SSE 13 17 7 9 1017.2 1017.1 0.0
22/09:30am 26.6 27.5 19.2 64 4.8 SSE 13 15 7 8 1017.4 1017.3 0.0
22/09:00am 25.1 24.5 17.6 63 4.7 SE 17 20 9 11 1017.5 1017.4 0.0
22/08:30am 23.7 24.1 18.1 71 3.5 SSE 13 17 7 9 1017.3 1017.2 0.0
22/08:00am 22.3 23.6 19.3 83 1.9 SSE 11 15 6 8 1017.2 1017.1 0.0
22/07:30am 21.0 24.6 19.8 93 0.8 CALM 0 6 0 3 1016.9 1016.8 0.0
22/07:00am 20.5 23.1 19.3 93 0.8 SE 4 6 2 3 1016.5 1016.4 0.0
22/06:30am 20.9 23.4 20.2 96 0.4 ESE 7 9 4 5 1016.1 1016.0 0.0
22/06:00am 20.6 23.5 19.9 96 0.4 S 4 9 2 5 1015.8 1015.7 0.0
22/05:30am 20.7 23.2 19.9 95 0.5 SSE 6 7 3 4 1015.5 1015.4 0.0
22/05:00am 21.0 24.7 20.0 94 0.6 CALM 0 0 0 0 1015.3 1015.2 0.0
22/04:30am 21.4 24.6 20.6 95 0.5 SSE 4 6 2 3 1015.1 1015.0 0.0
22/04:00am 21.6 25.6 20.6 94 0.6 CALM 0 0 0 0 1015.1 1015.0 0.0
22/03:30am 21.8 25.0 20.6 93 0.8 ESE 4 6 2 3 1015.1 1015.0 0.0
22/03:00am 22.3 25.4 21.1 93 0.8 SE 6 7 3 4 1015.0 1014.9 0.0
22/02:30am 22.8 26.2 21.6 93 0.8 E 6 9 3 5 1015.1 1015.0 0.0
22/02:00am 22.9 25.8 21.7 93 0.8 ENE 9 15 5 8 1015.2 1015.1 0.0
22/01:30am 23.5 26.8 21.9 91 1.1 SSW 7 9 4 5 1014.8 1014.7 0.0
22/01:00am 23.8 27.5 22.6 93 0.8 SW 7 9 4 5 1014.9 1014.8 0.0
22/12:30am 24.0 27.8 22.8 93 0.8 SW 7 9 4 5 1015.2 1015.1 0.0
22/12:00am 24.0 27.7 22.6 92 0.9 SW 7 9 4 5 1015.3 1015.2 0.0
 
Date/Time
EST
Temp
°C
App
Temp
°C
Dew
Point
Rel
Hum
%
Delta-T
°C
Wind Press
QNH
hPa
Press
MSL
hPa
Rain
since 9 am
mm
Dir
 
Spd
km/h
Gust
km/h
Spd
kts
Gust
kts
21/11:30pm 24.1 28.0 22.5 91 1.1 SW 6 9 3 5 1015.5 1015.4 0.0
21/11:00pm 24.5 28.3 22.7 90 1.2 SW 7 11 4 6 1015.7 1015.6 0.0
21/10:30pm 24.4 28.2 22.8 91 1.1 SW 7 9 4 5 1015.7 1015.6 0.0
21/10:00pm 24.3 28.2 22.6 90 1.1 SW 6 9 3 5 1015.8 1015.7 0.0
21/09:30pm 24.1 27.4 21.8 87 1.5 WSW 7 9 4 5 1015.6 1015.5 0.0
21/09:00pm 24.5 27.7 21.6 84 1.9 WSW 7 9 4 5 1015.5 1015.4 0.0
21/08:30pm 25.0 28.3 21.5 81 2.3 SW 6 7 3 4 1015.4 1015.3 0.0
21/08:00pm 25.4 27.9 21.1 77 2.8 WSW 9 11 5 6 1015.1 1015.0 0.0
21/07:30pm 25.9 28.0 20.9 74 3.3 WSW 11 15 6 8 1014.8 1014.7 0.0
21/07:00pm 26.3 28.6 20.6 71 3.7 WSW 9 15 5 8 1014.5 1014.4 0.0
21/06:30pm 26.9 28.7 20.3 67 4.3 W 11 15 6 8 1014.1 1014.0 0.0
21/06:00pm 28.0 29.2 20.0 61 5.2 WSW 13 17 7 9 1013.8 1013.7 0.0
21/05:30pm 29.4 30.3 20.0 57 6.2 WSW 15 19 8 10 1013.5 1013.4 0.0
21/05:00pm 31.0 31.6 20.3 53 7.1 W 17 20 9 11 1013.2 1013.1 0.0
21/04:30pm 29.8 30.3 20.1 56 6.4 WSW 17 26 9 14 1013.1 1013.0 0.0
21/04:00pm 31.4 31.9 20.0 50 7.5 WSW 17 20 9 11 1012.9 1012.8 0.0
21/03:30pm 32.2 32.2 19.8 48 8.2 W 19 26 10 14 1012.9 1012.8 0.0
21/03:00pm 31.3 31.1 19.3 49 7.8 W 19 28 10 15 1013.0 1012.9 0.0
21/02:30pm 34.2 35.0 17.4 36 10.8 SW 9 15 5 8 1013.2 1013.1 0.0
21/02:00pm 32.7 32.3 16.1 37 10.4 SSE 13 17 7 9 1013.6 1013.5 0.0
21/01:30pm 32.7 33.7 17.7 40 9.6 SSW 9 19 5 10 1014.1 1014.0 0.0
21/01:00pm 32.1 33.7 18.3 44 8.9 S 7 15 4 8 1014.6 1014.5 0.0
21/12:30pm 31.4 32.1 18.0 44 8.6 S 11 15 6 8 1015.3 1015.2 0.0
21/12:00pm 31.0 32.4 18.7 48 8.0 SSW 9 15 5 8 1015.9 1015.8 0.0
21/11:30am 30.8 32.4 19.2 50 7.6 ESE 9 13 5 7 1016.3 1016.2 0.0
21/11:00am 30.0 32.1 19.4 53 6.9 SSE 7 15 4 8 1016.7 1016.6 0.0
21/10:30am 30.3 32.5 19.6 52 7.0 NE 7 17 4 9 1017.3 1017.2 0.0
21/10:00am 29.1 30.8 19.4 55 6.3 NE 9 19 5 10 1017.5 1017.4 0.0
21/09:30am 28.0 29.2 19.8 61 5.3 NE 13 20 7 11 1017.5 1017.4 0.0
21/09:00am 26.9 27.3 19.8 65 4.6 NE 17 22 9 12 1017.6 1017.5 0.0
21/08:30am 25.6 27.8 20.4 73 3.4 NE 9 15 5 8 1017.5 1017.4 0.0
21/08:00am 24.3 27.7 21.6 85 1.8 NE 6 9 3 5 1017.3 1017.2 0.0
21/07:30am 22.7 26.9 21.7 94 0.7 NE 2 7 1 4 1017.1 1017.0 0.0
21/07:00am 22.0 26.0 21.3 96 0.5 ENE 2 6 1 3 1016.9 1016.8 0.0
21/06:30am 22.1 26.1 21.3 95 0.5 E 2 7 1 4 1016.7 1016.6 0.0
21/06:00am 22.2 26.5 21.2 94 0.7 CALM 0 0 0 0 1016.5 1016.4 0.0
21/05:30am 22.5 27.0 21.5 94 0.7 CALM 0 0 0 0 1015.9 1015.8 0.0
21/05:00am 22.6 26.4 21.6 94 0.7 ENE 4 6 2 3 1015.7 1015.6 0.0
21/04:30am 22.7 27.2 21.5 93 0.8 CALM 0 0 0 0 1015.5 1015.4 0.0
21/04:00am 23.1 27.7 21.7 92 0.9 CALM 0 0 0 0 1015.5 1015.4 0.0
21/03:30am 23.6 28.3 21.9 90 1.1 CALM 0 0 0 0 1015.5 1015.4 0.0
21/03:00am 23.9 28.4 22.2 90 1.1 NE 2 7 1 4 1015.6 1015.5 0.0
21/02:36am 24.2 28.1 22.6 91 1.1 NE 6 7 3 4 1015.7 1015.6 0.0
21/02:30am 24.3 28.1 22.7 91 1.1 NE 7 9 4 5 1015.7 1015.6 0.0
21/02:00am 24.1 27.6 22.9 93 0.8 ENE 9 11 5 6 1015.7 1015.6 0.0
21/01:30am 23.6 26.9 22.6 94 0.7 NE 9 11 5 6 1015.6 1015.5 0.0
21/01:00am 23.2 26.5 22.5 96 0.5 NE 9 11 5 6 1015.6 1015.5 0.0
21/12:40am 22.7 25.3 21.9 95 0.5 NE 11 15 6 8 1015.7 1015.6 0.0
21/12:30am 22.6 26.4 21.6 94 0.7 NNE 4 13 2 7 1015.6 1015.5 0.0
21/12:00am 22.7 27.1 21.3 92 0.9 CALM 0 0 0 0 1015.6 1015.5 0.0
 
Date/Time
EST
Temp
°C
App
Temp
°C
Dew
Point
Rel
Hum
%
Delta-T
°C
Wind Press
QNH
hPa
Press
MSL
hPa
Rain
since 9 am
mm
Dir
 
Spd
km/h
Gust
km/h
Spd
kts
Gust
kts
20/11:30pm 22.9 27.4 21.5 92 0.9 CALM 0 0 0 0 1015.5 1015.4 0.0
20/11:00pm 23.6 28.3 22.0 91 1.1 CALM 0 4 0 2 1015.6 1015.5 0.0
20/10:30pm 23.8 27.8 22.1 90 1.1 SW 4 7 2 4 1015.6 1015.5 0.0
20/10:00pm 24.1 27.7 22.0 88 1.4 SW 6 7 3 4 1015.6 1015.5 0.0
20/09:30pm 24.3 28.2 21.8 86 1.7 WSW 4 6 2 3 1015.5 1015.4 0.0
20/09:00pm 24.6 28.8 21.7 84 1.9 SW 2 6 1 3 1015.4 1015.3 0.0
20/08:30pm 25.1 28.4 21.8 82 2.2 SW 7 9 4 5 1015.1 1015.0 0.0
20/08:00pm 25.3 28.5 21.6 80 2.5 SW 7 11 4 6 1014.8 1014.7 0.0
20/07:30pm 25.6 28.1 21.1 76 3.0 WSW 9 13 5 7 1014.4 1014.3 0.0
20/07:00pm 26.1 28.4 20.7 72 3.5 WSW 9 13 5 7 1014.1 1014.0 0.0
20/06:30pm 26.7 28.4 20.1 67 4.3 W 11 15 6 8 1013.7 1013.6 0.0
20/06:00pm 28.0 28.9 20.0 61 5.2 W 15 20 8 11 1013.2 1013.1 0.0
20/05:30pm 29.6 29.7 19.9 56 6.4 WNW 19 22 10 12 1012.9 1012.8 0.0

Other Formats:

Comma delimited format used in spreadsheet applications
http://www.bom.gov.au/fwo/IDQ60801/IDQ60801.94268.axf

JavaScript Object Notation format (JSON) in row-major order
http://www.bom.gov.au/fwo/IDQ60801/IDQ60801.94268.json